createdAt,value
2022-09-30T00:01:35.992Z,96.20
2022-09-30T00:04:25.240Z,96.30
2022-09-30T00:07:12.586Z,96.20
2022-09-30T00:10:00.000Z,96.30
2022-09-30T00:12:48.736Z,96.30
2022-09-30T00:15:35.860Z,96.30
2022-09-30T00:18:23.917Z,96.30
2022-09-30T00:21:12.371Z,96.20
2022-09-30T00:23:59.892Z,96.30
2022-09-30T00:26:47.348Z,96.30
2022-09-30T00:29:36.100Z,96.40
2022-09-30T00:32:23.391Z,96.50
2022-09-30T00:35:10.855Z,96.40
2022-09-30T00:37:58.175Z,96.40
2022-09-30T00:40:45.600Z,96.50
2022-09-30T00:43:43.637Z,96.50
2022-09-30T00:46:41.119Z,96.50
2022-09-30T00:49:32.152Z,96.60
2022-09-30T00:52:19.943Z,96.50
2022-09-30T00:55:15.635Z,96.50
2022-09-30T00:58:04.319Z,96.60
2022-09-30T01:00:53.270Z,96.60
2022-09-30T01:03:46.099Z,96.60
2022-09-30T01:06:33.636Z,96.60
2022-09-30T01:09:21.417Z,96.50
2022-09-30T01:12:13.369Z,96.50
2022-09-30T01:15:02.226Z,96.50
2022-09-30T01:18:01.507Z,96.50
2022-09-30T01:21:11.422Z,96.50
2022-09-30T01:24:32.740Z,96.60
2022-09-30T01:27:25.240Z,96.50
2022-09-30T01:30:14.658Z,96.50
2022-09-30T01:33:19.475Z,96.50
2022-09-30T01:36:19.600Z,96.50
2022-09-30T01:39:24.819Z,96.60
2022-09-30T01:42:20.947Z,96.60
2022-09-30T01:45:13.649Z,96.60
2022-09-30T01:48:04.740Z,96.50
2022-09-30T01:50:59.742Z,96.50
2022-09-30T01:53:51.021Z,96.40
2022-09-30T01:56:44.110Z,96.50
2022-09-30T01:59:37.594Z,96.40
2022-09-30T02:02:27.677Z,96.40
2022-09-30T02:05:20.994Z,96.40
2022-09-30T02:08:13.920Z,96.40
2022-09-30T02:11:06.172Z,96.40
2022-09-30T02:13:58.464Z,96.40
2022-09-30T02:16:50.741Z,96.30
2022-09-30T02:19:40.892Z,96.30
2022-09-30T02:22:32.449Z,96.30
2022-09-30T02:25:26.413Z,96.30
2022-09-30T02:28:19.386Z,96.30
2022-09-30T02:31:08.652Z,96.30
2022-09-30T02:34:01.737Z,96.30
2022-09-30T02:36:56.071Z,96.30
2022-09-30T02:39:50.495Z,96.30
2022-09-30T02:42:41.775Z,96.20
2022-09-30T02:45:31.363Z,96.60
2022-09-30T02:48:29.469Z,96.20
2022-09-30T02:51:26.048Z,96.20
2022-09-30T02:54:19.587Z,96.20
2022-09-30T02:57:19.579Z,96.20
2022-09-30T03:00:12.780Z,96.10
2022-09-30T03:03:05.497Z,96.10
2022-09-30T03:05:53.747Z,96.10
2022-09-30T03:08:41.789Z,96.10
2022-09-30T03:11:31.031Z,96.10
2022-09-30T03:14:41.616Z,96.10
2022-09-30T03:17:45.265Z,96.10
2022-09-30T03:20:46.375Z,96.10
2022-09-30T03:23:52.950Z,96.10
2022-09-30T03:26:51.389Z,96.10
2022-09-30T03:29:48.600Z,96.10
2022-09-30T03:32:50.935Z,96.00
2022-09-30T03:35:49.110Z,96.00
2022-09-30T03:38:47.779Z,96.00
2022-09-30T03:41:41.812Z,95.90
2022-09-30T03:44:33.693Z,96.00
2022-09-30T03:47:23.462Z,96.00
2022-09-30T03:50:15.783Z,96.00
2022-09-30T03:53:02.971Z,96.00
2022-09-30T03:55:52.968Z,96.00
2022-09-30T03:58:44.101Z,96.00
2022-09-30T04:01:31.044Z,96.00
2022-09-30T04:04:18.102Z,95.90
2022-09-30T04:07:06.276Z,95.90
2022-09-30T04:09:53.808Z,95.90
2022-09-30T04:12:40.648Z,95.90
2022-09-30T04:15:28.159Z,95.90
2022-09-30T04:18:15.384Z,96.00
2022-09-30T04:21:05.787Z,96.00
2022-09-30T04:23:54.026Z,95.90
2022-09-30T04:26:41.022Z,95.90
2022-09-30T04:29:29.026Z,95.90
2022-09-30T04:32:16.043Z,95.90
2022-09-30T04:35:03.028Z,95.90
2022-09-30T04:37:50.325Z,95.90
2022-09-30T04:40:40.226Z,95.80
2022-09-30T04:43:27.201Z,95.80
2022-09-30T04:46:14.489Z,95.80
2022-09-30T04:49:03.765Z,95.80
2022-09-30T04:51:53.660Z,95.80
2022-09-30T04:54:40.885Z,95.80
2022-09-30T04:57:29.595Z,95.80
2022-09-30T05:00:16.720Z,95.70
2022-09-30T05:03:03.900Z,95.70
2022-09-30T05:05:51.627Z,95.70
2022-09-30T05:08:44.725Z,95.70
2022-09-30T05:11:33.198Z,95.70
2022-09-30T05:14:21.950Z,95.80
2022-09-30T05:17:09.100Z,95.80
2022-09-30T05:19:56.290Z,95.80
2022-09-30T05:22:43.309Z,95.80
2022-09-30T05:25:30.260Z,95.80
2022-09-30T05:28:17.467Z,95.80
2022-09-30T05:31:07.389Z,95.80
2022-09-30T05:33:58.024Z,95.80
2022-09-30T05:36:45.562Z,95.80
2022-09-30T05:39:33.095Z,95.80
2022-09-30T05:42:20.196Z,95.80
2022-09-30T05:45:08.088Z,95.90
2022-09-30T05:47:58.314Z,95.90
2022-09-30T05:50:50.846Z,96.00
2022-09-30T05:53:41.347Z,96.00
2022-09-30T05:56:28.736Z,96.40
2022-09-30T05:59:15.795Z,96.10
2022-09-30T06:02:02.637Z,96.20
2022-09-30T06:04:51.336Z,96.20
2022-09-30T06:07:39.817Z,96.30
2022-09-30T06:10:27.099Z,96.30
2022-09-30T06:13:13.964Z,96.40
2022-09-30T06:16:03.535Z,96.50
2022-09-30T06:18:50.709Z,96.50
2022-09-30T06:21:40.095Z,96.40
2022-09-30T06:24:27.409Z,96.50
2022-09-30T06:27:14.516Z,96.50
2022-09-30T06:30:01.748Z,96.50
2022-09-30T06:32:49.147Z,96.50
2022-09-30T06:35:36.061Z,96.50
2022-09-30T06:38:25.039Z,96.50
2022-09-30T06:41:12.204Z,96.50
2022-09-30T06:43:59.568Z,96.50
2022-09-30T06:46:53.498Z,96.60
2022-09-30T06:49:48.932Z,96.40
2022-09-30T06:52:37.295Z,96.50
2022-09-30T06:55:27.108Z,96.50
2022-09-30T06:58:17.132Z,96.50
2022-09-30T07:01:06.933Z,96.50
2022-09-30T07:03:58.233Z,96.50
2022-09-30T07:06:48.600Z,96.40
2022-09-30T07:09:35.777Z,96.70
2022-09-30T07:12:24.762Z,96.30
2022-09-30T07:15:13.870Z,96.30
2022-09-30T07:18:01.911Z,96.10
2022-09-30T07:20:51.454Z,96.10
2022-09-30T07:23:39.175Z,96.10
2022-09-30T07:26:27.836Z,96.20
2022-09-30T07:29:17.244Z,96.10
2022-09-30T07:32:05.317Z,96.10
2022-09-30T07:34:53.415Z,95.90
2022-09-30T07:37:41.060Z,95.60
2022-09-30T07:40:31.590Z,95.70
2022-09-30T07:43:19.189Z,95.70
2022-09-30T07:46:11.548Z,95.80
2022-09-30T07:49:04.375Z,95.50
2022-09-30T07:51:52.567Z,95.00
2022-09-30T07:54:43.437Z,94.80
2022-09-30T07:57:34.310Z,94.70
2022-09-30T08:00:41.684Z,94.80
2022-09-30T08:03:31.279Z,94.90
2022-09-30T08:06:21.882Z,94.60
2022-09-30T08:09:09.225Z,94.30
2022-09-30T08:11:56.745Z,94.20
2022-09-30T08:14:45.102Z,94.20
2022-09-30T08:17:32.552Z,94.30
2022-09-30T08:20:22.587Z,94.20
2022-09-30T08:23:09.990Z,94.20
2022-09-30T08:26:05.364Z,93.70
2022-09-30T08:28:52.606Z,93.60
2022-09-30T08:31:39.694Z,93.00
2022-09-30T08:34:26.818Z,92.80
2022-09-30T08:37:15.836Z,92.90
2022-09-30T08:40:03.416Z,92.50
2022-09-30T08:43:09.299Z,92.90
2022-09-30T08:46:07.516Z,92.70
2022-09-30T08:49:03.622Z,91.70
2022-09-30T08:51:52.886Z,92.00
2022-09-30T08:54:47.780Z,91.90
2022-09-30T08:57:38.469Z,91.20
2022-09-30T09:00:26.278Z,90.70
2022-09-30T09:03:15.461Z,90.60
2022-09-30T09:06:18.873Z,90.10
2022-09-30T09:09:18.081Z,90.00
2022-09-30T09:12:17.210Z,90.40
2022-09-30T09:15:23.844Z,90.00
2022-09-30T09:18:29.240Z,90.00
2022-09-30T09:21:23.379Z,89.50
2022-09-30T09:24:17.873Z,88.50
2022-09-30T09:27:20.048Z,87.40
2022-09-30T09:30:10.114Z,88.50
2022-09-30T09:33:00.053Z,87.90
2022-09-30T09:35:54.233Z,88.10
2022-09-30T09:39:04.668Z,90.00
2022-09-30T09:41:59.737Z,89.40
2022-09-30T09:44:55.309Z,88.90
2022-09-30T09:47:45.889Z,88.50
2022-09-30T09:50:42.698Z,89.60
2022-09-30T09:53:43.832Z,88.50
2022-09-30T09:56:33.909Z,88.50
2022-09-30T09:59:21.776Z,87.50
2022-09-30T10:05:12.051Z,86.70
2022-09-30T10:08:16.659Z,87.00
2022-09-30T10:11:07.136Z,87.40
2022-09-30T10:13:59.689Z,86.70
2022-09-30T10:16:47.952Z,86.70
2022-09-30T10:19:38.056Z,86.30
2022-09-30T10:22:33.541Z,85.80
2022-09-30T10:25:39.925Z,84.70
2022-09-30T10:28:36.198Z,84.40
2022-09-30T10:31:28.807Z,84.60
2022-09-30T10:34:28.551Z,84.30
2022-09-30T10:37:24.416Z,85.00
2022-09-30T10:40:29.490Z,85.40
2022-09-30T10:43:34.830Z,84.80
2022-09-30T10:46:29.439Z,84.50
2022-09-30T10:49:29.622Z,84.40
2022-09-30T10:52:21.478Z,84.20
2022-09-30T10:55:32.274Z,83.40
2022-09-30T10:58:28.496Z,82.30
2022-09-30T11:01:27.443Z,81.70
2022-09-30T11:04:24.645Z,81.90
2022-09-30T11:07:21.790Z,80.50
2022-09-30T11:10:27.069Z,80.00
2022-09-30T11:13:25.578Z,79.10
2022-09-30T11:16:33.988Z,80.10
2022-09-30T11:19:30.814Z,78.80
2022-09-30T11:22:38.215Z,78.70
2022-09-30T11:25:41.067Z,78.60
2022-09-30T11:28:52.139Z,78.40
2022-09-30T11:31:49.558Z,78.10
2022-09-30T11:34:52.199Z,78.20
2022-09-30T11:38:00.359Z,78.30
2022-09-30T11:41:01.180Z,78.30
2022-09-30T11:44:08.793Z,78.00
2022-09-30T11:47:14.971Z,79.00
2022-09-30T11:50:17.974Z,78.60
2022-09-30T11:53:17.904Z,79.00
2022-09-30T11:56:14.557Z,79.70
2022-09-30T11:59:09.774Z,79.50
2022-09-30T12:02:02.425Z,81.10
2022-09-30T12:04:53.662Z,80.90
2022-09-30T12:07:47.936Z,80.50
2022-09-30T12:10:40.623Z,80.70
2022-09-30T12:13:33.544Z,82.10
2022-09-30T12:16:26.661Z,81.50
2022-09-30T12:19:23.029Z,82.60
2022-09-30T12:22:17.897Z,83.20
2022-09-30T12:25:14.501Z,83.50
2022-09-30T12:28:28.438Z,82.60
2022-09-30T12:31:54.302Z,82.00
2022-09-30T12:34:45.916Z,80.80
2022-09-30T12:37:44.465Z,81.50
2022-09-30T12:40:57.492Z,82.00
2022-09-30T12:44:09.044Z,82.50
2022-09-30T12:47:17.370Z,81.30
2022-09-30T12:50:21.224Z,81.10
2022-09-30T12:53:24.398Z,80.20
2022-09-30T12:56:22.116Z,79.80
2022-09-30T12:59:10.678Z,80.50
2022-09-30T13:01:59.416Z,80.10
2022-09-30T13:04:48.332Z,82.00
2022-09-30T13:07:36.269Z,80.90
2022-09-30T13:10:29.479Z,80.30
2022-09-30T13:13:25.152Z,80.30
2022-09-30T13:16:12.351Z,80.10
2022-09-30T13:19:03.763Z,80.10
2022-09-30T13:21:52.494Z,79.80
2022-09-30T13:25:09.833Z,79.60
2022-09-30T13:28:12.152Z,79.80
2022-09-30T13:31:15.778Z,80.10
2022-09-30T13:34:12.962Z,79.70
2022-09-30T13:37:03.557Z,79.50
2022-09-30T13:39:53.788Z,79.90
2022-09-30T13:42:47.146Z,79.80
2022-09-30T13:45:39.952Z,79.90
2022-09-30T13:48:32.031Z,79.90
2022-09-30T13:51:22.439Z,79.80
2022-09-30T13:54:23.604Z,79.20
2022-09-30T13:57:20.464Z,79.60
2022-09-30T14:00:15.502Z,78.80
2022-09-30T14:03:17.535Z,78.60
2022-09-30T14:06:22.943Z,79.20
2022-09-30T14:09:33.174Z,79.60
2022-09-30T14:12:34.142Z,79.30
2022-09-30T14:15:38.497Z,79.60
2022-09-30T14:18:41.596Z,79.50
2022-09-30T14:21:37.306Z,80.00
2022-09-30T14:24:28.797Z,78.90
2022-09-30T14:27:27.278Z,79.20
2022-09-30T14:30:20.441Z,78.80
2022-09-30T14:33:12.290Z,78.10
2022-09-30T14:36:03.709Z,78.60
2022-09-30T14:38:55.162Z,78.40
2022-09-30T14:41:51.018Z,78.10
2022-09-30T14:44:40.604Z,79.20
2022-09-30T14:47:28.391Z,78.70
2022-09-30T14:50:20.582Z,78.70
2022-09-30T14:53:25.967Z,79.60
2022-09-30T14:56:22.521Z,79.20
2022-09-30T14:59:21.162Z,79.20
2022-09-30T15:02:18.607Z,79.80
2022-09-30T15:05:07.051Z,79.40
2022-09-30T15:07:56.218Z,80.10
2022-09-30T15:10:49.764Z,79.80
2022-09-30T15:13:40.960Z,79.50
2022-09-30T15:16:32.510Z,79.50
2022-09-30T15:19:23.471Z,79.60
2022-09-30T15:22:13.942Z,80.40
2022-09-30T15:25:02.093Z,81.10
2022-09-30T15:27:50.461Z,80.40
2022-09-30T15:30:38.103Z,80.50
2022-09-30T15:33:32.208Z,80.50
2022-09-30T15:36:21.595Z,81.40
2022-09-30T15:39:21.502Z,82.00
2022-09-30T15:42:09.696Z,81.50
2022-09-30T15:44:59.567Z,82.00
2022-09-30T15:47:58.197Z,82.60
2022-09-30T15:50:49.788Z,81.70
2022-09-30T15:53:50.229Z,82.20
2022-09-30T15:56:38.888Z,82.10
2022-09-30T16:00:02.279Z,82.00
2022-09-30T16:02:53.014Z,82.20
2022-09-30T16:05:42.268Z,82.00
2022-09-30T16:08:32.909Z,82.10
2022-09-30T16:11:25.350Z,81.60
2022-09-30T16:14:34.623Z,81.50
2022-09-30T16:17:24.950Z,81.60
2022-09-30T16:20:24.255Z,81.80
2022-09-30T16:23:28.892Z,82.20
2022-09-30T16:26:24.584Z,82.40
2022-09-30T16:29:15.699Z,82.30
2022-09-30T16:32:06.088Z,82.20
2022-09-30T16:34:53.495Z,82.40
2022-09-30T16:37:43.007Z,82.30
2022-09-30T16:40:31.515Z,82.30
2022-09-30T16:43:19.967Z,83.40
2022-09-30T16:46:08.269Z,83.50
2022-09-30T16:48:55.280Z,83.30
2022-09-30T16:51:43.599Z,84.20
2022-09-30T16:54:31.200Z,84.20
2022-09-30T16:57:18.913Z,84.30
2022-09-30T17:00:08.871Z,84.40
2022-09-30T17:02:57.603Z,84.10
2022-09-30T17:05:46.897Z,84.20
2022-09-30T17:08:34.642Z,84.00
2022-09-30T17:11:27.004Z,84.90
2022-09-30T17:14:17.245Z,85.20
2022-09-30T17:17:10.931Z,86.50
2022-09-30T17:20:00.818Z,85.20
2022-09-30T17:22:48.845Z,85.00
2022-09-30T17:25:36.719Z,86.00
2022-09-30T17:28:24.841Z,86.50
2022-09-30T17:31:13.408Z,85.90
2022-09-30T17:34:05.698Z,86.10
2022-09-30T17:36:56.541Z,85.80
2022-09-30T17:39:44.046Z,85.80
2022-09-30T17:42:45.466Z,85.80
2022-09-30T17:45:31.410Z,86.60
2022-09-30T17:48:18.319Z,86.50
2022-09-30T17:51:08.126Z,87.20
2022-09-30T17:53:55.822Z,87.90
2022-09-30T17:56:44.794Z,88.00
2022-09-30T17:59:32.171Z,88.40
2022-09-30T18:02:21.478Z,88.60
2022-09-30T18:05:08.865Z,88.80
2022-09-30T18:07:57.675Z,89.00
2022-09-30T18:10:44.807Z,89.20
2022-09-30T18:13:32.407Z,89.30
2022-09-30T18:16:19.884Z,89.00
2022-09-30T18:19:08.774Z,89.00
2022-09-30T18:21:56.017Z,89.40
2022-09-30T18:24:58.636Z,89.80
2022-09-30T18:27:44.602Z,90.20
2022-09-30T18:30:30.358Z,90.20
2022-09-30T18:33:21.456Z,90.30
2022-09-30T18:36:08.752Z,90.30
2022-09-30T18:38:58.500Z,90.40
2022-09-30T18:41:48.695Z,90.50
2022-09-30T18:44:38.030Z,90.60
2022-09-30T18:47:25.731Z,90.60
2022-09-30T18:50:16.904Z,90.60
2022-09-30T18:53:09.532Z,90.70
2022-09-30T18:56:00.511Z,90.70
2022-09-30T18:58:51.623Z,90.60
2022-09-30T19:01:39.373Z,90.90
2022-09-30T19:04:26.784Z,90.80
2022-09-30T19:07:14.104Z,91.00
2022-09-30T19:10:01.764Z,91.10
2022-09-30T19:12:49.869Z,91.10
2022-09-30T19:15:40.711Z,91.10
2022-09-30T19:18:31.329Z,91.10
2022-09-30T19:21:22.253Z,91.00
2022-09-30T19:24:10.629Z,91.00
2022-09-30T19:26:57.757Z,91.10
2022-09-30T19:29:44.800Z,91.30
2022-09-30T19:32:34.612Z,91.30
2022-09-30T19:35:31.314Z,91.50
2022-09-30T19:38:32.918Z,91.50
2022-09-30T19:41:23.801Z,91.60
2022-09-30T19:44:10.921Z,91.60
2022-09-30T19:46:59.163Z,91.60
2022-09-30T19:49:47.542Z,91.70
2022-09-30T19:52:37.588Z,91.80
2022-09-30T19:55:31.387Z,91.80
2022-09-30T19:58:23.864Z,91.80
2022-09-30T20:01:12.388Z,91.90
2022-09-30T20:04:03.148Z,91.90
2022-09-30T20:06:54.012Z,92.00
2022-09-30T20:09:42.390Z,92.10
2022-09-30T20:12:30.203Z,92.10
2022-09-30T20:15:31.117Z,92.10
2022-09-30T20:18:17.038Z,92.20
2022-09-30T20:21:09.182Z,92.20
2022-09-30T20:23:59.959Z,92.30
2022-09-30T20:26:47.664Z,92.40
2022-09-30T20:29:34.622Z,92.40
2022-09-30T20:32:21.694Z,92.50
2022-09-30T20:35:09.483Z,92.50
2022-09-30T20:37:56.696Z,92.50
2022-09-30T20:40:45.425Z,92.60
2022-09-30T20:43:33.774Z,92.60
2022-09-30T20:46:22.304Z,92.60
2022-09-30T20:49:10.064Z,92.70
2022-09-30T20:51:57.474Z,92.70
2022-09-30T20:54:44.585Z,92.60
2022-09-30T20:57:33.260Z,92.60
2022-09-30T21:00:20.511Z,92.60
2022-09-30T21:03:10.728Z,92.70
2022-09-30T21:05:57.868Z,92.70
2022-09-30T21:08:45.510Z,92.80
2022-09-30T21:11:32.685Z,93.20
2022-09-30T21:14:21.629Z,92.90
2022-09-30T21:17:09.278Z,92.90
2022-09-30T21:19:56.734Z,92.90
2022-09-30T21:22:43.950Z,92.90
2022-09-30T21:25:32.781Z,93.00
2022-09-30T21:28:22.392Z,92.90
2022-09-30T21:31:18.652Z,92.90
2022-09-30T21:34:05.651Z,92.90
2022-09-30T21:36:52.853Z,93.00
2022-09-30T21:39:39.884Z,93.00
2022-09-30T21:42:27.221Z,93.10
2022-09-30T21:45:14.163Z,93.10
2022-09-30T21:48:04.705Z,93.10
2022-09-30T21:50:51.986Z,93.10
2022-09-30T21:53:39.484Z,93.10
2022-09-30T21:56:28.112Z,93.20
2022-09-30T21:59:15.226Z,93.20
2022-09-30T22:02:02.465Z,93.20
2022-09-30T22:04:51.179Z,93.20
2022-09-30T22:07:41.516Z,93.20
2022-09-30T22:10:28.578Z,93.10
2022-09-30T22:13:16.870Z,93.10
2022-09-30T22:16:05.452Z,93.00
2022-09-30T22:18:54.100Z,93.00
2022-09-30T22:21:43.020Z,92.90
2022-09-30T22:24:31.542Z,92.90
2022-09-30T22:27:18.633Z,93.20
2022-09-30T22:30:07.375Z,92.80
2022-09-30T22:33:14.441Z,92.40
2022-09-30T22:36:15.447Z,92.70
2022-09-30T22:39:02.844Z,92.60
2022-09-30T22:41:49.266Z,92.60
2022-09-30T22:44:37.389Z,92.60
2022-09-30T22:47:24.876Z,92.70
2022-09-30T22:50:12.777Z,92.70
2022-09-30T22:53:00.204Z,92.70
2022-09-30T22:55:48.546Z,92.80
2022-09-30T22:58:36.989Z,93.00
2022-09-30T23:01:24.400Z,92.80
2022-09-30T23:04:11.637Z,92.90
2022-09-30T23:06:59.419Z,92.90
2022-09-30T23:09:46.543Z,93.00
2022-09-30T23:12:35.660Z,93.00
2022-09-30T23:15:22.747Z,93.20
2022-09-30T23:18:10.247Z,93.20
2022-09-30T23:20:57.999Z,93.40
2022-09-30T23:23:46.418Z,93.40
2022-09-30T23:26:34.325Z,93.50
2022-09-30T23:29:23.123Z,93.60
2022-09-30T23:32:10.348Z,93.70
2022-09-30T23:34:57.728Z,94.20
2022-09-30T23:37:44.935Z,93.80
2022-09-30T23:40:32.934Z,93.80
2022-09-30T23:43:22.414Z,93.90
2022-09-30T23:46:10.662Z,94.00
2022-09-30T23:48:58.007Z,94.00
2022-09-30T23:51:45.383Z,94.00
2022-09-30T23:54:32.530Z,94.10
2022-09-30T23:57:19.866Z,94.10
